JF4 weather

CLOSED Antler Airport
Antler, Saskatchewan, Canada

Public forecast

Using degrees Celsius for public forecast. Weather courtesy of forecast.io.

Closest aviation weather report (METAR) to Antler Airport

Closest report is Estevan Airport, 59.4 nm (109.9 km) WSW. Retrieved 2019/10/21 07:00 UTC (13 minutes ago):

CYEN 210700Z AUTO 03002KT 9SM CLR M03/M05 A2991 RMK SLP152

Closest aviation forecast (TAF) to Antler Airport

Forecast is more than 12 hours old.

Closest forecast is Estevan Airport, 59.4 nm (109.9 km) WSW. Retrieved 2019/10/20 18:00 UTC (13 hours ago):

TAF CYEN 201739Z 2018/2024 33012KT P6SM BKN120 FM202100 33010KT P6SM SCT200 RMK FCST BASED ON AUTO OBS NXT FCST WILL BE ISSUED AT 211145Z